Andersontown, Pennsylvania
Current Conditions -  °F | °C
As of 3:56 PM on Saturday 25 Oct 2014 (Local Time) from KCXY Reporting Station
Clear Clear  
Wind Chill: 21°   Ceiling: Unl
Heat Index: 21°   Visibility: 10mi
Dew Point:   Wind: 15mph
Humidity: 41%   Direction: 250°WSW
Pressure: 29.72"   Gusts: 23mph
Location:  40.208°N, 77.0098°W
Report Text: KCXY 251956Z 25013G20KT 10SM CLR 21/07 A2972 RMK AO2 SLP065 T02110072
Loading
Personal Weather Stations






























Interactive Weather Map
Tropical Storm Tracking
New forecast layout! Learn more

10-Day Weather Forecast

Advertisements
Track Severe Weather on mobile